sensor_id;sensor_type;location;lat;lon;timestamp;temperature;humidity
46732;DHT22;32477;51.474;5.696;2023-05-19T00:01:06;8.40;99.90
46732;DHT22;32477;51.474;5.696;2023-05-19T00:03:33;8.40;99.90
46732;DHT22;32477;51.474;5.696;2023-05-19T00:06:01;8.50;99.90
46732;DHT22;32477;51.474;5.696;2023-05-19T00:08:30;8.50;99.90
46732;DHT22;32477;51.474;5.696;2023-05-19T00:10:56;8.60;99.90
46732;DHT22;32477;51.474;5.696;2023-05-19T00:13:22;8.50;99.90
46732;DHT22;32477;51.474;5.696;2023-05-19T00:15:49;8.50;99.90
46732;DHT22;32477;51.474;5.696;2023-05-19T00:18:15;8.50;99.90
46732;DHT22;32477;51.474;5.696;2023-05-19T00:20:42;8.40;99.90
46732;DHT22;32477;51.474;5.696;2023-05-19T00:23:09;8.50;99.90
46732;DHT22;32477;51.474;5.696;2023-05-19T00:25:35;8.50;99.90
46732;DHT22;32477;51.474;5.696;2023-05-19T00:28:00;8.40;99.90
46732;DHT22;32477;51.474;5.696;2023-05-19T00:30:27;8.40;99.90
46732;DHT22;32477;51.474;5.696;2023-05-19T00:32:54;8.40;99.90
46732;DHT22;32477;51.474;5.696;2023-05-19T00:35:19;8.40;99.90
46732;DHT22;32477;51.474;5.696;2023-05-19T00:37:46;8.30;99.90
46732;DHT22;32477;51.474;5.696;2023-05-19T00:40:12;8.40;99.90
46732;DHT22;32477;51.474;5.696;2023-05-19T00:42:37;8.30;99.90
46732;DHT22;32477;51.474;5.696;2023-05-19T00:45:04;8.30;99.90
46732;DHT22;32477;51.474;5.696;2023-05-19T00:47:30;8.40;99.90
46732;DHT22;32477;51.474;5.696;2023-05-19T00:49:55;8.40;99.90
46732;DHT22;32477;51.474;5.696;2023-05-19T00:52:21;8.40;99.90
46732;DHT22;32477;51.474;5.696;2023-05-19T00:54:48;8.40;99.90
46732;DHT22;32477;51.474;5.696;2023-05-19T00:57:15;8.40;99.90
46732;DHT22;32477;51.474;5.696;2023-05-19T00:59:41;8.30;99.90
46732;DHT22;32477;51.474;5.696;2023-05-19T01:02:07;8.30;99.90
46732;DHT22;32477;51.474;5.696;2023-05-19T01:04:35;8.30;99.90
46732;DHT22;32477;51.474;5.696;2023-05-19T01:07:02;8.20;99.90
46732;DHT22;32477;51.474;5.696;2023-05-19T01:09:27;8.20;99.90
46732;DHT22;32477;51.474;5.696;2023-05-19T01:11:55;8.20;99.90
46732;DHT22;32477;51.474;5.696;2023-05-19T01:14:20;8.20;99.90
46732;DHT22;32477;51.474;5.696;2023-05-19T01:16:57;8.20;99.90
46732;DHT22;32477;51.474;5.696;2023-05-19T01:22:42;8.10;99.90
46732;DHT22;32477;51.474;5.696;2023-05-19T01:30:52;8.10;99.90
46732;DHT22;32477;51.474;5.696;2023-05-19T01:33:20;8.10;99.90
46732;DHT22;32477;51.474;5.696;2023-05-19T01:35:48;8.10;99.90
46732;DHT22;32477;51.474;5.696;2023-05-19T01:38:16;8.00;99.90
46732;DHT22;32477;51.474;5.696;2023-05-19T01:40:44;7.90;99.90
46732;DHT22;32477;51.474;5.696;2023-05-19T01:43:18;7.90;99.90
46732;DHT22;32477;51.474;5.696;2023-05-19T01:45:44;7.90;99.90
46732;DHT22;32477;51.474;5.696;2023-05-19T01:48:10;7.80;99.90
46732;DHT22;32477;51.474;5.696;2023-05-19T01:50:38;7.80;99.90
46732;DHT22;32477;51.474;5.696;2023-05-19T01:53:03;7.90;99.90
46732;DHT22;32477;51.474;5.696;2023-05-19T01:55:29;7.80;99.90
46732;DHT22;32477;51.474;5.696;2023-05-19T02:03:56;7.90;99.90
46732;DHT22;32477;51.474;5.696;2023-05-19T02:11:37;7.80;99.90
46732;DHT22;32477;51.474;5.696;2023-05-19T02:14:15;7.70;99.90
46732;DHT22;32477;51.474;5.696;2023-05-19T02:16:44;7.80;99.90
46732;DHT22;32477;51.474;5.696;2023-05-19T02:19:26;7.70;99.90
46732;DHT22;32477;51.474;5.696;2023-05-19T02:21:52;7.70;99.90
46732;DHT22;32477;51.474;5.696;2023-05-19T02:24:18;7.60;99.90
46732;DHT22;32477;51.474;5.696;2023-05-19T02:26:48;7.60;99.90
46732;DHT22;32477;51.474;5.696;2023-05-19T02:29:13;7.50;99.90
46732;DHT22;32477;51.474;5.696;2023-05-19T02:31:39;7.50;99.90
46732;DHT22;32477;51.474;5.696;2023-05-19T02:34:05;7.50;99.90
46732;DHT22;32477;51.474;5.696;2023-05-19T02:36:33;7.50;99.90
46732;DHT22;32477;51.474;5.696;2023-05-19T02:39:01;7.50;99.90
46732;DHT22;32477;51.474;5.696;2023-05-19T02:41:27;7.50;99.90
46732;DHT22;32477;51.474;5.696;2023-05-19T02:43:53;7.50;99.90
46732;DHT22;32477;51.474;5.696;2023-05-19T02:46:19;7.40;99.90
46732;DHT22;32477;51.474;5.696;2023-05-19T02:48:44;7.40;99.90
46732;DHT22;32477;51.474;5.696;2023-05-19T02:51:11;7.50;99.90
46732;DHT22;32477;51.474;5.696;2023-05-19T02:53:37;7.40;99.90
46732;DHT22;32477;51.474;5.696;2023-05-19T02:56:03;7.30;99.90
46732;DHT22;32477;51.474;5.696;2023-05-19T02:58:28;7.30;99.90
46732;DHT22;32477;51.474;5.696;2023-05-19T03:00:55;7.30;99.90
46732;DHT22;32477;51.474;5.696;2023-05-19T03:03:21;7.20;99.90
46732;DHT22;32477;51.474;5.696;2023-05-19T03:05:46;7.20;99.90
46732;DHT22;32477;51.474;5.696;2023-05-19T03:08:12;7.10;99.90
46732;DHT22;32477;51.474;5.696;2023-05-19T03:10:38;7.00;99.90
46732;DHT22;32477;51.474;5.696;2023-05-19T03:13:03;7.10;99.90
46732;DHT22;32477;51.474;5.696;2023-05-19T03:15:29;7.10;99.90
46732;DHT22;32477;51.474;5.696;2023-05-19T03:17:55;7.10;99.90
46732;DHT22;32477;51.474;5.696;2023-05-19T03:20:21;7.20;99.90
46732;DHT22;32477;51.474;5.696;2023-05-19T03:22:47;7.20;99.90
46732;DHT22;32477;51.474;5.696;2023-05-19T03:25:12;7.20;99.90
46732;DHT22;32477;51.474;5.696;2023-05-19T03:27:38;7.10;99.90
46732;DHT22;32477;51.474;5.696;2023-05-19T03:30:04;7.10;99.90
46732;DHT22;32477;51.474;5.696;2023-05-19T03:32:30;7.10;99.90
46732;DHT22;32477;51.474;5.696;2023-05-19T03:34:57;7.10;99.90
46732;DHT22;32477;51.474;5.696;2023-05-19T03:37:23;7.00;99.90
46732;DHT22;32477;51.474;5.696;2023-05-19T03:39:49;7.10;99.90
46732;DHT22;32477;51.474;5.696;2023-05-19T03:42:15;7.10;99.90
46732;DHT22;32477;51.474;5.696;2023-05-19T03:44:41;7.10;99.90
46732;DHT22;32477;51.474;5.696;2023-05-19T03:47:06;7.00;99.90
46732;DHT22;32477;51.474;5.696;2023-05-19T03:49:32;7.00;99.90
46732;DHT22;32477;51.474;5.696;2023-05-19T03:51:57;7.00;99.90
46732;DHT22;32477;51.474;5.696;2023-05-19T03:54:23;7.00;99.90
46732;DHT22;32477;51.474;5.696;2023-05-19T03:56:49;7.00;99.90
46732;DHT22;32477;51.474;5.696;2023-05-19T03:59:14;7.00;99.90
46732;DHT22;32477;51.474;5.696;2023-05-19T04:01:40;7.10;99.90
46732;DHT22;32477;51.474;5.696;2023-05-19T04:04:06;7.10;99.90
46732;DHT22;32477;51.474;5.696;2023-05-19T04:06:32;7.10;99.90
46732;DHT22;32477;51.474;5.696;2023-05-19T04:08:58;7.10;99.90
46732;DHT22;32477;51.474;5.696;2023-05-19T04:11:24;7.20;99.90
46732;DHT22;32477;51.474;5.696;2023-05-19T04:13:50;7.20;99.90
46732;DHT22;32477;51.474;5.696;2023-05-19T04:16:15;7.20;99.90
46732;DHT22;32477;51.474;5.696;2023-05-19T04:18:41;7.20;99.90
46732;DHT22;32477;51.474;5.696;2023-05-19T04:21:09;7.30;99.90
46732;DHT22;32477;51.474;5.696;2023-05-19T04:23:35;7.30;99.90
46732;DHT22;32477;51.474;5.696;2023-05-19T04:26:01;7.30;99.90
46732;DHT22;32477;51.474;5.696;2023-05-19T04:28:28;7.30;99.90
46732;DHT22;32477;51.474;5.696;2023-05-19T04:30:54;7.30;99.90
46732;DHT22;32477;51.474;5.696;2023-05-19T04:33:22;7.30;99.90
46732;DHT22;32477;51.474;5.696;2023-05-19T04:35:48;7.40;99.90
46732;DHT22;32477;51.474;5.696;2023-05-19T04:38:14;7.40;99.90
46732;DHT22;32477;51.474;5.696;2023-05-19T04:40:43;7.50;99.90
46732;DHT22;32477;51.474;5.696;2023-05-19T04:43:08;7.50;99.90
46732;DHT22;32477;51.474;5.696;2023-05-19T04:45:35;7.60;99.90
46732;DHT22;32477;51.474;5.696;2023-05-19T04:48:02;7.60;99.90
46732;DHT22;32477;51.474;5.696;2023-05-19T04:50:28;7.70;99.90
46732;DHT22;32477;51.474;5.696;2023-05-19T04:52:55;7.70;99.90
46732;DHT22;32477;51.474;5.696;2023-05-19T04:55:23;7.80;99.90
46732;DHT22;32477;51.474;5.696;2023-05-19T04:57:48;8.00;99.90
46732;DHT22;32477;51.474;5.696;2023-05-19T05:00:14;8.10;99.90
46732;DHT22;32477;51.474;5.696;2023-05-19T05:02:41;8.20;99.90
46732;DHT22;32477;51.474;5.696;2023-05-19T05:05:07;8.20;99.90
46732;DHT22;32477;51.474;5.696;2023-05-19T05:07:33;8.30;99.90
46732;DHT22;32477;51.474;5.696;2023-05-19T05:09:59;8.40;99.90
46732;DHT22;32477;51.474;5.696;2023-05-19T05:12:25;8.40;99.90
46732;DHT22;32477;51.474;5.696;2023-05-19T05:14:51;8.60;99.90
46732;DHT22;32477;51.474;5.696;2023-05-19T05:17:17;8.70;99.90
46732;DHT22;32477;51.474;5.696;2023-05-19T05:19:43;8.70;99.90
46732;DHT22;32477;51.474;5.696;2023-05-19T05:22:09;8.90;99.90
46732;DHT22;32477;51.474;5.696;2023-05-19T05:24:35;8.90;99.90
46732;DHT22;32477;51.474;5.696;2023-05-19T05:27:00;9.00;99.90
46732;DHT22;32477;51.474;5.696;2023-05-19T05:29:26;9.20;99.90
46732;DHT22;32477;51.474;5.696;2023-05-19T05:31:51;9.40;99.90
46732;DHT22;32477;51.474;5.696;2023-05-19T05:34:17;9.50;99.90
46732;DHT22;32477;51.474;5.696;2023-05-19T05:36:43;9.90;99.90
46732;DHT22;32477;51.474;5.696;2023-05-19T05:39:08;10.30;99.90
46732;DHT22;32477;51.474;5.696;2023-05-19T05:41:34;10.70;99.90
46732;DHT22;32477;51.474;5.696;2023-05-19T05:44:00;11.20;99.90
46732;DHT22;32477;51.474;5.696;2023-05-19T05:46:26;11.50;99.90
46732;DHT22;32477;51.474;5.696;2023-05-19T05:48:52;11.90;99.90
46732;DHT22;32477;51.474;5.696;2023-05-19T05:51:20;12.30;99.90
46732;DHT22;32477;51.474;5.696;2023-05-19T05:53:51;12.40;99.90
46732;DHT22;32477;51.474;5.696;2023-05-19T05:56:18;12.60;99.90
46732;DHT22;32477;51.474;5.696;2023-05-19T05:58:44;12.60;99.90
46732;DHT22;32477;51.474;5.696;2023-05-19T06:01:10;12.70;99.90
46732;DHT22;32477;51.474;5.696;2023-05-19T06:03:40;12.90;99.90
46732;DHT22;32477;51.474;5.696;2023-05-19T06:06:06;12.90;99.90
46732;DHT22;32477;51.474;5.696;2023-05-19T06:08:32;12.80;99.90
46732;DHT22;32477;51.474;5.696;2023-05-19T06:10:58;12.10;99.90
46732;DHT22;32477;51.474;5.696;2023-05-19T06:13:23;12.00;99.90
46732;DHT22;32477;51.474;5.696;2023-05-19T06:15:51;11.70;99.90
46732;DHT22;32477;51.474;5.696;2023-05-19T06:18:17;11.80;99.90
46732;DHT22;32477;51.474;5.696;2023-05-19T06:20:43;12.00;99.90
46732;DHT22;32477;51.474;5.696;2023-05-19T06:23:08;12.20;99.90
46732;DHT22;32477;51.474;5.696;2023-05-19T06:25:34;12.40;99.90
46732;DHT22;32477;51.474;5.696;2023-05-19T06:28:00;12.90;99.90
46732;DHT22;32477;51.474;5.696;2023-05-19T06:30:26;13.10;99.90
46732;DHT22;32477;51.474;5.696;2023-05-19T06:32:52;13.50;99.90
46732;DHT22;32477;51.474;5.696;2023-05-19T06:35:17;14.30;99.90
46732;DHT22;32477;51.474;5.696;2023-05-19T06:37:43;15.00;99.90
46732;DHT22;32477;51.474;5.696;2023-05-19T06:40:09;15.10;99.90
46732;DHT22;32477;51.474;5.696;2023-05-19T06:42:34;15.60;99.90
46732;DHT22;32477;51.474;5.696;2023-05-19T06:45:00;15.70;99.90
46732;DHT22;32477;51.474;5.696;2023-05-19T06:47:26;15.50;99.90
46732;DHT22;32477;51.474;5.696;2023-05-19T06:49:51;15.70;99.90
46732;DHT22;32477;51.474;5.696;2023-05-19T06:52:20;15.80;99.90
46732;DHT22;32477;51.474;5.696;2023-05-19T06:54:50;15.70;99.90
46732;DHT22;32477;51.474;5.696;2023-05-19T06:57:15;15.40;99.90
46732;DHT22;32477;51.474;5.696;2023-05-19T06:59:41;15.20;99.90
46732;DHT22;32477;51.474;5.696;2023-05-19T07:02:08;15.70;99.90
46732;DHT22;32477;51.474;5.696;2023-05-19T07:04:34;16.10;99.90
46732;DHT22;32477;51.474;5.696;2023-05-19T07:07:00;16.40;99.90
46732;DHT22;32477;51.474;5.696;2023-05-19T07:09:26;16.80;99.90
46732;DHT22;32477;51.474;5.696;2023-05-19T07:11:52;16.70;99.90
46732;DHT22;32477;51.474;5.696;2023-05-19T07:14:17;17.00;99.90
46732;DHT22;32477;51.474;5.696;2023-05-19T07:16:43;17.40;99.90
46732;DHT22;32477;51.474;5.696;2023-05-19T07:19:09;18.10;99.90
46732;DHT22;32477;51.474;5.696;2023-05-19T07:21:34;17.90;99.90
46732;DHT22;32477;51.474;5.696;2023-05-19T07:24:00;17.80;99.80
46732;DHT22;32477;51.474;5.696;2023-05-19T07:26:26;18.90;98.60
46732;DHT22;32477;51.474;5.696;2023-05-19T07:28:52;18.80;97.60
46732;DHT22;32477;51.474;5.696;2023-05-19T07:31:18;18.90;97.30
46732;DHT22;32477;51.474;5.696;2023-05-19T07:33:43;19.40;96.90
46732;DHT22;32477;51.474;5.696;2023-05-19T07:36:09;19.70;95.50
46732;DHT22;32477;51.474;5.696;2023-05-19T07:38:35;19.70;94.50
46732;DHT22;32477;51.474;5.696;2023-05-19T07:41:01;18.80;95.20
46732;DHT22;32477;51.474;5.696;2023-05-19T07:43:27;17.80;96.80
46732;DHT22;32477;51.474;5.696;2023-05-19T07:45:53;17.90;97.80
46732;DHT22;32477;51.474;5.696;2023-05-19T07:48:21;18.50;97.50
46732;DHT22;32477;51.474;5.696;2023-05-19T07:50:47;19.90;95.10
46732;DHT22;32477;51.474;5.696;2023-05-19T07:53:13;20.20;93.90
46732;DHT22;32477;51.474;5.696;2023-05-19T07:55:39;20.90;93.20
46732;DHT22;32477;51.474;5.696;2023-05-19T07:58:05;21.00;91.80
46732;DHT22;32477;51.474;5.696;2023-05-19T08:00:31;20.20;92.40
46732;DHT22;32477;51.474;5.696;2023-05-19T08:02:57;19.70;93.10
46732;DHT22;32477;51.474;5.696;2023-05-19T08:05:23;19.90;92.80
46732;DHT22;32477;51.474;5.696;2023-05-19T08:07:50;20.20;93.10
46732;DHT22;32477;51.474;5.696;2023-05-19T08:10:15;21.00;91.40
46732;DHT22;32477;51.474;5.696;2023-05-19T08:12:41;21.10;90.40
46732;DHT22;32477;51.474;5.696;2023-05-19T08:15:08;21.20;91.00
46732;DHT22;32477;51.474;5.696;2023-05-19T08:17:36;22.20;89.80
46732;DHT22;32477;51.474;5.696;2023-05-19T08:20:02;22.60;88.10
46732;DHT22;32477;51.474;5.696;2023-05-19T08:22:29;21.90;85.70
46732;DHT22;32477;51.474;5.696;2023-05-19T08:24:55;21.70;87.30
46732;DHT22;32477;51.474;5.696;2023-05-19T08:27:21;22.00;89.50
46732;DHT22;32477;51.474;5.696;2023-05-19T08:29:47;22.60;85.30
46732;DHT22;32477;51.474;5.696;2023-05-19T08:32:12;22.50;82.50
46732;DHT22;32477;51.474;5.696;2023-05-19T08:34:38;22.80;83.10
46732;DHT22;32477;51.474;5.696;2023-05-19T08:37:04;22.70;80.00
46732;DHT22;32477;51.474;5.696;2023-05-19T08:39:29;22.10;81.20
46732;DHT22;32477;51.474;5.696;2023-05-19T08:41:57;22.00;82.10
46732;DHT22;32477;51.474;5.696;2023-05-19T08:44:23;22.80;81.00
46732;DHT22;32477;51.474;5.696;2023-05-19T08:46:48;23.20;78.30
46732;DHT22;32477;51.474;5.696;2023-05-19T08:49:22;22.90;76.50
46732;DHT22;32477;51.474;5.696;2023-05-19T08:54:40;23.10;75.70
46732;DHT22;32477;51.474;5.696;2023-05-19T08:57:08;23.20;77.00
46732;DHT22;32477;51.474;5.696;2023-05-19T08:59:34;23.10;75.10
46732;DHT22;32477;51.474;5.696;2023-05-19T09:02:00;22.50;71.50
46732;DHT22;32477;51.474;5.696;2023-05-19T09:04:26;22.70;73.00
46732;DHT22;32477;51.474;5.696;2023-05-19T09:06:52;22.70;72.80
46732;DHT22;32477;51.474;5.696;2023-05-19T09:09:18;22.20;73.30
46732;DHT22;32477;51.474;5.696;2023-05-19T09:11:47;23.20;71.50
46732;DHT22;32477;51.474;5.696;2023-05-19T09:14:13;22.50;72.10
46732;DHT22;32477;51.474;5.696;2023-05-19T09:16:39;23.00;71.60
46732;DHT22;32477;51.474;5.696;2023-05-19T09:19:05;23.00;70.50
46732;DHT22;32477;51.474;5.696;2023-05-19T09:21:37;23.40;71.10
46732;DHT22;32477;51.474;5.696;2023-05-19T09:24:04;24.00;70.40
46732;DHT22;32477;51.474;5.696;2023-05-19T09:26:41;23.90;70.40
46732;DHT22;32477;51.474;5.696;2023-05-19T09:29:16;23.40;68.00
46732;DHT22;32477;51.474;5.696;2023-05-19T09:31:54;24.40;67.80
46732;DHT22;32477;51.474;5.696;2023-05-19T09:34:25;24.20;66.60
46732;DHT22;32477;51.474;5.696;2023-05-19T09:36:52;24.20;67.00
46732;DHT22;32477;51.474;5.696;2023-05-19T09:39:19;22.90;66.50
46732;DHT22;32477;51.474;5.696;2023-05-19T09:41:45;23.10;66.80
46732;DHT22;32477;51.474;5.696;2023-05-19T09:44:33;23.60;67.30
46732;DHT22;32477;51.474;5.696;2023-05-19T09:46:59;23.80;67.00
46732;DHT22;32477;51.474;5.696;2023-05-19T09:49:26;24.20;66.10
46732;DHT22;32477;51.474;5.696;2023-05-19T09:51:58;24.30;65.30
46732;DHT22;32477;51.474;5.696;2023-05-19T09:54:24;23.90;66.60
46732;DHT22;32477;51.474;5.696;2023-05-19T09:57:02;23.90;66.10
46732;DHT22;32477;51.474;5.696;2023-05-19T09:59:29;23.60;67.20
46732;DHT22;32477;51.474;5.696;2023-05-19T10:01:56;23.30;66.20
46732;DHT22;32477;51.474;5.696;2023-05-19T10:04:26;23.50;66.50
46732;DHT22;32477;51.474;5.696;2023-05-19T10:06:53;23.40;66.50
46732;DHT22;32477;51.474;5.696;2023-05-19T10:09:22;24.00;66.40
46732;DHT22;32477;51.474;5.696;2023-05-19T10:11:54;24.80;65.70
46732;DHT22;32477;51.474;5.696;2023-05-19T10:14:24;24.50;64.80
46732;DHT22;32477;51.474;5.696;2023-05-19T10:16:51;24.60;64.80
46732;DHT22;32477;51.474;5.696;2023-05-19T10:19:25;24.80;65.30
46732;DHT22;32477;51.474;5.696;2023-05-19T10:21:52;24.80;64.80
46732;DHT22;32477;51.474;5.696;2023-05-19T10:24:18;24.60;64.50
46732;DHT22;32477;51.474;5.696;2023-05-19T10:29:28;24.60;63.80
46732;DHT22;32477;51.474;5.696;2023-05-19T10:32:05;25.00;64.20
46732;DHT22;32477;51.474;5.696;2023-05-19T10:43:29;24.50;63.80
46732;DHT22;32477;51.474;5.696;2023-05-19T10:45:59;24.60;64.60
46732;DHT22;32477;51.474;5.696;2023-05-19T10:48:25;24.20;62.90
46732;DHT22;32477;51.474;5.696;2023-05-19T10:50:55;24.60;62.70
46732;DHT22;32477;51.474;5.696;2023-05-19T10:53:21;23.70;63.30
46732;DHT22;32477;51.474;5.696;2023-05-19T10:55:54;23.20;64.70
46732;DHT22;32477;51.474;5.696;2023-05-19T11:01:13;23.20;65.00
46732;DHT22;32477;51.474;5.696;2023-05-19T11:03:50;22.90;65.00
46732;DHT22;32477;51.474;5.696;2023-05-19T11:08:54;25.20;63.60
46732;DHT22;32477;51.474;5.696;2023-05-19T11:11:20;24.70;63.80
46732;DHT22;32477;51.474;5.696;2023-05-19T11:13:50;23.30;64.70
46732;DHT22;32477;51.474;5.696;2023-05-19T11:16:34;23.40;65.90
46732;DHT22;32477;51.474;5.696;2023-05-19T11:19:00;22.90;65.10
46732;DHT22;32477;51.474;5.696;2023-05-19T11:24:36;23.60;62.70
46732;DHT22;32477;51.474;5.696;2023-05-19T11:27:20;24.20;63.10
46732;DHT22;32477;51.474;5.696;2023-05-19T11:29:47;24.10;64.10
46732;DHT22;32477;51.474;5.696;2023-05-19T11:32:14;24.30;63.10
46732;DHT22;32477;51.474;5.696;2023-05-19T11:34:40;24.60;63.10
46732;DHT22;32477;51.474;5.696;2023-05-19T11:37:06;24.60;62.30
46732;DHT22;32477;51.474;5.696;2023-05-19T11:39:33;24.70;62.20
46732;DHT22;32477;51.474;5.696;2023-05-19T11:41:59;23.60;62.50
46732;DHT22;32477;51.474;5.696;2023-05-19T11:44:25;23.10;63.30
46732;DHT22;32477;51.474;5.696;2023-05-19T11:46:51;23.50;63.80
46732;DHT22;32477;51.474;5.696;2023-05-19T11:49:17;24.20;62.10
46732;DHT22;32477;51.474;5.696;2023-05-19T11:51:44;22.90;63.10
46732;DHT22;32477;51.474;5.696;2023-05-19T11:54:10;23.20;63.30
46732;DHT22;32477;51.474;5.696;2023-05-19T11:56:42;23.90;62.50
46732;DHT22;32477;51.474;5.696;2023-05-19T11:59:08;23.40;63.00
46732;DHT22;32477;51.474;5.696;2023-05-19T12:01:34;23.60;62.80
46732;DHT22;32477;51.474;5.696;2023-05-19T12:04:09;23.90;63.20
46732;DHT22;32477;51.474;5.696;2023-05-19T12:06:35;25.50;61.60
46732;DHT22;32477;51.474;5.696;2023-05-19T12:09:04;25.30;60.20
46732;DHT22;32477;51.474;5.696;2023-05-19T12:11:30;24.80;61.00
46732;DHT22;32477;51.474;5.696;2023-05-19T12:14:00;24.30;60.40
46732;DHT22;32477;51.474;5.696;2023-05-19T12:16:35;24.10;60.80
46732;DHT22;32477;51.474;5.696;2023-05-19T12:19:04;24.40;61.10
46732;DHT22;32477;51.474;5.696;2023-05-19T12:21:30;24.00;61.00
46732;DHT22;32477;51.474;5.696;2023-05-19T12:23:56;23.50;62.80
46732;DHT22;32477;51.474;5.696;2023-05-19T12:26:22;23.80;62.20
46732;DHT22;32477;51.474;5.696;2023-05-19T12:28:49;23.40;61.90
46732;DHT22;32477;51.474;5.696;2023-05-19T12:31:16;24.60;61.60
46732;DHT22;32477;51.474;5.696;2023-05-19T12:33:42;26.60;60.30
46732;DHT22;32477;51.474;5.696;2023-05-19T12:36:08;25.40;59.50
46732;DHT22;32477;51.474;5.696;2023-05-19T12:38:35;24.90;60.50
46732;DHT22;32477;51.474;5.696;2023-05-19T12:41:05;24.70;59.80
46732;DHT22;32477;51.474;5.696;2023-05-19T12:43:31;23.60;60.80
46732;DHT22;32477;51.474;5.696;2023-05-19T12:45:57;23.10;61.80
46732;DHT22;32477;51.474;5.696;2023-05-19T12:48:23;23.50;61.50
46732;DHT22;32477;51.474;5.696;2023-05-19T12:50:51;24.20;61.10
46732;DHT22;32477;51.474;5.696;2023-05-19T12:53:20;24.80;60.40
46732;DHT22;32477;51.474;5.696;2023-05-19T12:55:45;25.50;59.60
46732;DHT22;32477;51.474;5.696;2023-05-19T12:58:11;24.90;59.40
46732;DHT22;32477;51.474;5.696;2023-05-19T13:00:41;23.70;61.20
46732;DHT22;32477;51.474;5.696;2023-05-19T13:03:17;23.90;60.80
46732;DHT22;32477;51.474;5.696;2023-05-19T13:05:44;25.00;60.40
46732;DHT22;32477;51.474;5.696;2023-05-19T13:08:15;25.40;60.20
46732;DHT22;32477;51.474;5.696;2023-05-19T13:10:43;24.80;60.20
46732;DHT22;32477;51.474;5.696;2023-05-19T13:13:09;25.30;60.90
46732;DHT22;32477;51.474;5.696;2023-05-19T13:15:43;25.20;60.80
46732;DHT22;32477;51.474;5.696;2023-05-19T13:18:09;24.60;60.30
46732;DHT22;32477;51.474;5.696;2023-05-19T13:20:37;24.40;60.70
46732;DHT22;32477;51.474;5.696;2023-05-19T13:23:03;22.90;61.50
46732;DHT22;32477;51.474;5.696;2023-05-19T13:25:29;22.70;62.60
46732;DHT22;32477;51.474;5.696;2023-05-19T13:27:55;23.00;62.20
46732;DHT22;32477;51.474;5.696;2023-05-19T13:30:23;23.00;63.20
46732;DHT22;32477;51.474;5.696;2023-05-19T13:32:50;23.10;62.20
46732;DHT22;32477;51.474;5.696;2023-05-19T13:35:16;23.80;62.50
46732;DHT22;32477;51.474;5.696;2023-05-19T13:37:42;23.10;61.40
46732;DHT22;32477;51.474;5.696;2023-05-19T13:40:08;23.40;62.50
46732;DHT22;32477;51.474;5.696;2023-05-19T13:42:34;23.50;61.40
46732;DHT22;32477;51.474;5.696;2023-05-19T13:45:01;23.30;62.50
46732;DHT22;32477;51.474;5.696;2023-05-19T13:47:27;23.40;62.30
46732;DHT22;32477;51.474;5.696;2023-05-19T13:49:52;23.40;61.00
46732;DHT22;32477;51.474;5.696;2023-05-19T13:52:19;23.50;60.80
46732;DHT22;32477;51.474;5.696;2023-05-19T13:54:46;22.70;62.40
46732;DHT22;32477;51.474;5.696;2023-05-19T13:57:12;22.30;62.60
46732;DHT22;32477;51.474;5.696;2023-05-19T13:59:38;22.50;62.30
46732;DHT22;32477;51.474;5.696;2023-05-19T14:02:04;23.20;62.10
46732;DHT22;32477;51.474;5.696;2023-05-19T14:04:30;23.80;62.40
46732;DHT22;32477;51.474;5.696;2023-05-19T14:06:56;23.30;61.20
46732;DHT22;32477;51.474;5.696;2023-05-19T14:09:23;23.50;60.80
46732;DHT22;32477;51.474;5.696;2023-05-19T14:11:49;23.90;60.80
46732;DHT22;32477;51.474;5.696;2023-05-19T14:14:14;24.30;61.50
46732;DHT22;32477;51.474;5.696;2023-05-19T14:16:40;24.30;61.10
46732;DHT22;32477;51.474;5.696;2023-05-19T14:19:06;23.30;61.50
46732;DHT22;32477;51.474;5.696;2023-05-19T14:21:32;23.00;62.20
46732;DHT22;32477;51.474;5.696;2023-05-19T14:23:57;22.80;62.60
46732;DHT22;32477;51.474;5.696;2023-05-19T14:26:23;23.10;61.50
46732;DHT22;32477;51.474;5.696;2023-05-19T14:28:49;22.60;62.00
46732;DHT22;32477;51.474;5.696;2023-05-19T14:31:15;22.30;61.70
46732;DHT22;32477;51.474;5.696;2023-05-19T14:33:41;22.10;62.40
46732;DHT22;32477;51.474;5.696;2023-05-19T14:36:08;21.70;64.00
46732;DHT22;32477;51.474;5.696;2023-05-19T14:38:34;21.60;64.70
46732;DHT22;32477;51.474;5.696;2023-05-19T14:41:00;21.70;65.50
46732;DHT22;32477;51.474;5.696;2023-05-19T14:43:25;21.70;65.60
46732;DHT22;32477;51.474;5.696;2023-05-19T14:45:51;21.80;65.30
46732;DHT22;32477;51.474;5.696;2023-05-19T14:48:17;21.30;65.50
46732;DHT22;32477;51.474;5.696;2023-05-19T14:50:43;20.80;66.10
46732;DHT22;32477;51.474;5.696;2023-05-19T14:53:09;20.50;66.60
46732;DHT22;32477;51.474;5.696;2023-05-19T14:55:35;20.60;67.40
46732;DHT22;32477;51.474;5.696;2023-05-19T14:58:01;20.70;67.50
46732;DHT22;32477;51.474;5.696;2023-05-19T15:00:27;20.60;67.30
46732;DHT22;32477;51.474;5.696;2023-05-19T15:02:53;20.70;66.70
46732;DHT22;32477;51.474;5.696;2023-05-19T15:05:19;20.50;67.20
46732;DHT22;32477;51.474;5.696;2023-05-19T15:07:44;20.50;66.70
46732;DHT22;32477;51.474;5.696;2023-05-19T15:10:10;20.60;67.30
46732;DHT22;32477;51.474;5.696;2023-05-19T15:12:36;20.40;67.50
46732;DHT22;32477;51.474;5.696;2023-05-19T15:15:02;20.50;68.30
46732;DHT22;32477;51.474;5.696;2023-05-19T15:17:28;20.50;65.90
46732;DHT22;32477;51.474;5.696;2023-05-19T15:19:54;20.30;67.10
46732;DHT22;32477;51.474;5.696;2023-05-19T15:22:19;20.10;66.70
46732;DHT22;32477;51.474;5.696;2023-05-19T15:24:45;19.90;68.00
46732;DHT22;32477;51.474;5.696;2023-05-19T15:27:11;19.80;67.30
46732;DHT22;32477;51.474;5.696;2023-05-19T15:29:36;19.90;67.80
46732;DHT22;32477;51.474;5.696;2023-05-19T15:32:02;20.10;67.80
46732;DHT22;32477;51.474;5.696;2023-05-19T15:34:28;20.00;67.40
46732;DHT22;32477;51.474;5.696;2023-05-19T15:36:53;19.90;67.90
46732;DHT22;32477;51.474;5.696;2023-05-19T15:39:19;19.90;68.60
46732;DHT22;32477;51.474;5.696;2023-05-19T15:41:45;20.10;68.30
46732;DHT22;32477;51.474;5.696;2023-05-19T15:44:11;20.10;67.90
46732;DHT22;32477;51.474;5.696;2023-05-19T15:46:36;20.00;68.10
46732;DHT22;32477;51.474;5.696;2023-05-19T15:49:02;20.00;68.50
46732;DHT22;32477;51.474;5.696;2023-05-19T15:51:28;19.90;68.40
46732;DHT22;32477;51.474;5.696;2023-05-19T15:53:54;19.80;68.50
46732;DHT22;32477;51.474;5.696;2023-05-19T15:56:20;20.00;68.80
46732;DHT22;32477;51.474;5.696;2023-05-19T15:58:46;20.20;68.50
46732;DHT22;32477;51.474;5.696;2023-05-19T16:01:12;20.30;68.50
46732;DHT22;32477;51.474;5.696;2023-05-19T16:03:38;20.20;67.40
46732;DHT22;32477;51.474;5.696;2023-05-19T16:06:03;20.20;67.60
46732;DHT22;32477;51.474;5.696;2023-05-19T16:08:29;20.00;67.70
46732;DHT22;32477;51.474;5.696;2023-05-19T16:10:55;19.80;68.60
46732;DHT22;32477;51.474;5.696;2023-05-19T16:13:21;19.50;69.50
46732;DHT22;32477;51.474;5.696;2023-05-19T16:15:46;19.40;70.10